createdAt,value
2022-08-24T00:00:23.902Z,101038.91
2022-08-24T00:05:26.007Z,101032.25
2022-08-24T00:10:27.618Z,101034.72
2022-08-24T00:15:29.229Z,101036.00
2022-08-24T00:20:30.868Z,101042.97
2022-08-24T00:25:33.894Z,101036.63
2022-08-24T00:30:35.862Z,101049.69
2022-08-24T00:35:37.619Z,101041.28
2022-08-24T00:40:42.365Z,101045.31
2022-08-24T00:45:59.766Z,101047.78
2022-08-24T00:51:08.535Z,101046.72
2022-08-24T00:56:20.468Z,101046.03
2022-08-24T01:01:22.639Z,101038.44
2022-08-24T01:06:25.412Z,101041.03
2022-08-24T01:11:34.003Z,101040.91
2022-08-24T01:16:36.646Z,101050.09
2022-08-24T01:21:47.896Z,101051.72
2022-08-24T01:26:50.977Z,101047.25
2022-08-24T01:31:54.102Z,101054.88
2022-08-24T01:36:57.291Z,101047.97
2022-08-24T01:42:00.041Z,101053.06
2022-08-24T01:47:07.408Z,101055.72
2022-08-24T01:52:13.933Z,101055.78
2022-08-24T01:57:16.070Z,101059.25
2022-08-24T02:02:27.275Z,101056.81
2022-08-24T02:07:29.102Z,101057.38
2022-08-24T02:12:30.714Z,101058.72
2022-08-24T02:17:32.826Z,101062.50
2022-08-24T02:22:34.468Z,101066.22
2022-08-24T02:27:36.116Z,101070.16
2022-08-24T02:32:38.084Z,101067.84
2022-08-24T02:37:43.645Z,101067.84
2022-08-24T02:42:48.527Z,101068.78
2022-08-24T02:47:50.622Z,101061.75
2022-08-24T02:52:53.511Z,101061.88
2022-08-24T02:57:56.572Z,101072.38
2022-08-24T03:02:58.406Z,101077.28
2022-08-24T03:08:00.422Z,101073.81
2022-08-24T03:13:03.103Z,101070.69
2022-08-24T03:18:05.207Z,101075.19
2022-08-24T03:23:06.867Z,101086.06
2022-08-24T03:28:11.183Z,101077.50
2022-08-24T03:33:14.329Z,101077.06
2022-08-24T03:38:16.418Z,101078.31
2022-08-24T03:43:18.369Z,101070.47
2022-08-24T03:48:20.176Z,101067.81
2022-08-24T03:53:22.219Z,101064.78
2022-08-24T03:58:24.191Z,101065.94
2022-08-24T04:03:26.862Z,101072.16
2022-08-24T04:08:35.742Z,101080.75
2022-08-24T04:13:37.579Z,101079.13
2022-08-24T04:18:41.063Z,101070.13
2022-08-24T04:23:47.528Z,101084.69
2022-08-24T04:28:51.064Z,101084.28
2022-08-24T04:33:54.200Z,101090.78
2022-08-24T04:38:56.944Z,101082.44
2022-08-24T04:44:28.036Z,101084.09
2022-08-24T04:49:36.329Z,101090.47
2022-08-24T04:54:38.037Z,101091.38
2022-08-24T04:59:50.844Z,101095.38
2022-08-24T05:04:52.445Z,101110.28
2022-08-24T05:09:54.975Z,101114.09
2022-08-24T05:15:00.272Z,101109.28
2022-08-24T05:20:04.570Z,101111.03
2022-08-24T05:25:06.977Z,101118.31
2022-08-24T05:30:12.035Z,101121.75
2022-08-24T05:35:14.095Z,101127.34
2022-08-24T05:40:19.503Z,101132.38
2022-08-24T05:45:24.965Z,101128.84
2022-08-24T05:50:26.782Z,101134.78
2022-08-24T05:55:28.421Z,101142.88
2022-08-24T06:00:30.648Z,101138.94
2022-08-24T06:05:33.206Z,101137.72
2022-08-24T06:10:43.488Z,101154.69
2022-08-24T06:15:59.444Z,101159.59
2022-08-24T06:21:11.345Z,101160.59
2022-08-24T06:26:18.280Z,101166.50
2022-08-24T06:31:22.825Z,101169.22
2022-08-24T06:36:27.408Z,101175.47
2022-08-24T06:41:29.399Z,101178.44
2022-08-24T06:46:33.038Z,101178.34
2022-08-24T06:51:35.318Z,101187.47
2022-08-24T06:56:38.347Z,101187.91
2022-08-24T07:01:40.190Z,101185.56
2022-08-24T07:06:42.066Z,101184.38
2022-08-24T07:11:44.482Z,101189.69
2022-08-24T07:16:46.161Z,101191.63
2022-08-24T07:21:48.406Z,101190.25
2022-08-24T07:26:50.068Z,101188.59
2022-08-24T07:31:52.266Z,101183.69
2022-08-24T07:37:07.354Z,101187.44
2022-08-24T07:42:15.838Z,101197.47
2022-08-24T07:47:37.711Z,101193.81
2022-08-24T07:52:48.651Z,101196.59
2022-08-24T07:57:50.908Z,101201.56
2022-08-24T08:02:53.232Z,101201.63
2022-08-24T08:07:55.539Z,101202.13
2022-08-24T08:12:57.533Z,101213.56
2022-08-24T08:17:59.595Z,101218.59
2022-08-24T08:23:01.921Z,101215.75
2022-08-24T08:28:33.106Z,101220.16
2022-08-24T08:33:37.294Z,101216.78
2022-08-24T08:38:39.900Z,101229.44
2022-08-24T08:43:45.623Z,101223.56
2022-08-24T08:48:59.154Z,101220.63
2022-08-24T08:54:33.172Z,101219.66
2022-08-24T08:59:54.822Z,101213.72
2022-08-24T09:05:15.152Z,101207.88
2022-08-24T09:10:22.852Z,101214.66
2022-08-24T09:15:43.004Z,101215.84
2022-08-24T09:20:54.175Z,101203.09
2022-08-24T09:26:08.953Z,101193.13
2022-08-24T09:37:00.672Z,101191.38
2022-08-24T09:42:21.009Z,101187.75
2022-08-24T09:47:46.492Z,101194.75
2022-08-24T09:52:48.212Z,101187.63
2022-08-24T09:58:27.068Z,101194.53
2022-08-24T10:03:53.660Z,101189.91
2022-08-24T10:09:04.551Z,101183.19
2022-08-24T10:14:30.898Z,101165.09
2022-08-24T10:20:20.685Z,101159.19
2022-08-24T10:25:40.304Z,101154.97
2022-08-24T10:30:50.378Z,101148.56
2022-08-24T10:35:57.693Z,101150.75
2022-08-24T10:41:14.423Z,101153.28
2022-08-24T10:46:35.962Z,101146.38
2022-08-24T10:51:59.469Z,101139.47
2022-08-24T10:57:22.449Z,101138.06
2022-08-24T11:02:32.168Z,101138.78
2022-08-24T11:07:35.371Z,101144.91
2022-08-24T11:12:39.019Z,101133.13
2022-08-24T11:18:03.123Z,101118.34
2022-08-24T11:23:29.625Z,101121.94
2022-08-24T11:28:39.005Z,101114.34
2022-08-24T11:33:50.249Z,101109.22
2022-08-24T11:39:17.320Z,101110.94
2022-08-24T11:44:32.571Z,101102.66
2022-08-24T11:49:54.998Z,101096.22
2022-08-24T11:55:10.363Z,101100.75
2022-08-24T12:00:14.705Z,101098.25
2022-08-24T12:05:35.617Z,101091.19
2022-08-24T12:11:03.339Z,101076.75
2022-08-24T12:16:16.858Z,101086.16
2022-08-24T12:21:23.897Z,101075.22
2022-08-24T12:26:35.589Z,101073.19
2022-08-24T12:31:48.433Z,101070.75
2022-08-24T12:37:16.358Z,101060.97
2022-08-24T12:42:33.407Z,101066.66
2022-08-24T12:47:49.776Z,101067.44
2022-08-24T12:53:15.153Z,101062.03
2022-08-24T12:58:35.060Z,101057.34
2022-08-24T13:03:40.601Z,101056.50
2022-08-24T13:08:46.171Z,101061.56
2022-08-24T13:14:15.226Z,101050.13
2022-08-24T13:19:22.921Z,101049.72
2022-08-24T13:24:27.945Z,101047.09
2022-08-24T13:29:33.759Z,101044.38
2022-08-24T13:34:43.667Z,101035.66
2022-08-24T13:40:00.846Z,101035.00
2022-08-24T13:45:17.744Z,101030.81
2022-08-24T13:50:31.339Z,101029.19
2022-08-24T13:55:44.949Z,101010.31
2022-08-24T14:01:01.568Z,101008.38
2022-08-24T14:06:25.133Z,101005.25
2022-08-24T14:11:35.700Z,100996.50
2022-08-24T14:17:07.069Z,101003.69
2022-08-24T14:22:51.710Z,101004.81
2022-08-24T14:27:59.381Z,101001.13
2022-08-24T14:33:01.069Z,100995.22
2022-08-24T14:38:20.912Z,100994.75
2022-08-24T14:43:34.743Z,100989.16
2022-08-24T14:49:00.897Z,100984.09
2022-08-24T14:54:40.301Z,100981.47
2022-08-24T15:00:06.562Z,100975.72
2022-08-24T15:05:35.389Z,100984.38
2022-08-24T15:10:44.119Z,100976.31
2022-08-24T15:16:13.842Z,100965.53
2022-08-24T15:21:37.393Z,100960.97
2022-08-24T15:27:08.073Z,100958.25
2022-08-24T15:32:12.485Z,100946.03
2022-08-24T15:37:30.812Z,100950.72
2022-08-24T15:42:36.798Z,100942.09
2022-08-24T15:47:40.986Z,100935.13
2022-08-24T15:52:53.817Z,100929.69
2022-08-24T15:57:56.580Z,100940.69
2022-08-24T16:03:21.021Z,100935.06
2022-08-24T16:08:23.782Z,100930.38
2022-08-24T16:13:29.837Z,100927.53
2022-08-24T16:18:52.282Z,100922.44
2022-08-24T16:24:06.469Z,100927.00
2022-08-24T16:29:08.110Z,100922.59
2022-08-24T16:34:21.574Z,100920.97
2022-08-24T16:39:23.740Z,100914.03
2022-08-24T16:44:31.636Z,100915.47
2022-08-24T16:49:33.374Z,100921.59
2022-08-24T16:54:35.123Z,100925.63
2022-08-24T16:59:37.011Z,100919.25
2022-08-24T17:04:39.418Z,100918.00
2022-08-24T17:09:44.333Z,100912.81
2022-08-24T17:14:46.244Z,100922.03
2022-08-24T17:19:52.876Z,100918.66
2022-08-24T17:24:54.664Z,100924.22
2022-08-24T17:29:56.584Z,100925.94
2022-08-24T17:34:58.506Z,100927.34
2022-08-24T17:40:00.163Z,100936.50
2022-08-24T17:45:02.043Z,100938.13
2022-08-24T17:50:06.372Z,100938.19
2022-08-24T17:55:11.370Z,100944.31
2022-08-24T18:00:14.295Z,100947.31
2022-08-24T18:05:16.101Z,100945.09
2022-08-24T18:10:21.864Z,100944.59
2022-08-24T18:15:34.610Z,100946.25
2022-08-24T18:20:40.454Z,100942.53
2022-08-24T18:25:49.456Z,100948.97
2022-08-24T18:30:51.894Z,100955.34
2022-08-24T18:35:53.577Z,100954.97
2022-08-24T18:41:01.544Z,100962.09
2022-08-24T18:46:03.573Z,100968.00
2022-08-24T18:51:05.816Z,100972.94
2022-08-24T18:56:12.268Z,100964.09
2022-08-24T19:01:14.713Z,100968.69
2022-08-24T19:06:16.756Z,100975.81
2022-08-24T19:11:23.171Z,100972.13
2022-08-24T19:16:24.885Z,100976.28
2022-08-24T19:21:29.600Z,100971.16
2022-08-24T19:26:33.547Z,100976.22
2022-08-24T19:31:35.303Z,100978.16
2022-08-24T19:36:37.136Z,100982.03
2022-08-24T19:41:43.015Z,100980.78
2022-08-24T19:46:47.837Z,100984.19
2022-08-24T19:51:51.050Z,100970.13
2022-08-24T19:56:53.585Z,100978.25
2022-08-24T20:01:55.283Z,100986.94
2022-08-24T20:06:57.694Z,100983.88
2022-08-24T20:11:59.333Z,100993.19
2022-08-24T20:17:01.531Z,100990.47
2022-08-24T20:22:13.064Z,100993.88
2022-08-24T20:27:21.218Z,100990.88
2022-08-24T20:32:23.581Z,100992.63
2022-08-24T20:37:28.244Z,100999.34
2022-08-24T20:42:30.461Z,100991.91
2022-08-24T20:47:32.219Z,100998.53
2022-08-24T20:52:34.002Z,101009.38
2022-08-24T20:57:35.766Z,101008.41
2022-08-24T21:02:37.424Z,101005.56
2022-08-24T21:07:39.662Z,101009.16
2022-08-24T21:12:41.277Z,101006.06
2022-08-24T21:17:45.893Z,101009.19
2022-08-24T21:22:47.568Z,101014.69
2022-08-24T21:27:49.385Z,101011.38
2022-08-24T21:32:51.080Z,101023.63
2022-08-24T21:37:53.069Z,101030.19
2022-08-24T21:42:55.753Z,101030.72
2022-08-24T21:47:57.434Z,101033.50
2022-08-24T21:52:59.709Z,101035.31
2022-08-24T21:58:01.410Z,101041.97
2022-08-24T22:03:05.393Z,101045.13
2022-08-24T22:08:07.117Z,101046.13
2022-08-24T22:13:08.879Z,101041.41
2022-08-24T22:18:10.737Z,101037.41
2022-08-24T22:23:12.364Z,101039.75
2022-08-24T22:28:13.920Z,101036.59
2022-08-24T22:33:15.966Z,101047.88
2022-08-24T22:38:18.644Z,101042.81
2022-08-24T22:43:23.245Z,101046.34
2022-08-24T22:48:26.610Z,101048.72
2022-08-24T22:53:28.574Z,101047.34
2022-08-24T22:58:30.279Z,101047.38
2022-08-24T23:03:31.961Z,101045.47
2022-08-24T23:08:33.658Z,101048.41
2022-08-24T23:13:36.173Z,101048.88
2022-08-24T23:18:38.879Z,101048.31
2022-08-24T23:23:40.766Z,101046.19
2022-08-24T23:28:43.139Z,101044.81
2022-08-24T23:33:46.463Z,101043.53
2022-08-24T23:38:50.196Z,101044.47
2022-08-24T23:43:53.591Z,101044.09
2022-08-24T23:48:56.719Z,101054.03
2022-08-24T23:54:00.682Z,101051.03
2022-08-24T23:59:08.973Z,101047.06
